sensor_id;sensor_type;location;lat;lon;timestamp;pressure;altitude;pressure_sealevel;temperature;humidity
7075;BME280;3578;51.568;6.932;2023-08-20T00:01:12;50575.66;;;-144.14;100.00
7075;BME280;3578;51.568;6.932;2023-08-20T00:03:42;50585.69;;;-144.14;100.00
7075;BME280;3578;51.568;6.932;2023-08-20T00:06:10;50597.69;;;-144.14;100.00
7075;BME280;3578;51.568;6.932;2023-08-20T00:08:37;50563.66;;;-144.14;100.00
7075;BME280;3578;51.568;6.932;2023-08-20T00:11:05;50569.66;;;-144.14;100.00
7075;BME280;3578;51.568;6.932;2023-08-20T00:13:33;50501.56;;;-144.14;100.00
7075;BME280;3578;51.568;6.932;2023-08-20T00:16:01;50541.63;;;-144.14;100.00
7075;BME280;3578;51.568;6.932;2023-08-20T00:18:29;50593.69;;;-144.14;100.00
7075;BME280;3578;51.568;6.932;2023-08-20T00:20:57;50557.66;;;-144.14;100.00
7075;BME280;3578;51.568;6.932;2023-08-20T00:23:27;50585.69;;;-144.14;100.00
7075;BME280;3578;51.568;6.932;2023-08-20T00:25:54;50537.63;;;-144.14;100.00
7075;BME280;3578;51.568;6.932;2023-08-20T00:28:21;50501.56;;;-144.14;100.00
7075;BME280;3578;51.568;6.932;2023-08-20T00:30:50;50533.63;;;-144.14;100.00
7075;BME280;3578;51.568;6.932;2023-08-20T00:33:17;50509.59;;;-144.14;100.00
7075;BME280;3578;51.568;6.932;2023-08-20T00:35:44;50545.63;;;-144.14;100.00
7075;BME280;3578;51.568;6.932;2023-08-20T00:38:11;50537.63;;;-144.14;100.00
7075;BME280;3578;51.568;6.932;2023-08-20T00:40:38;50519.59;;;-144.14;100.00
7075;BME280;3578;51.568;6.932;2023-08-20T00:43:05;50517.59;;;-144.14;100.00
7075;BME280;3578;51.568;6.932;2023-08-20T00:45:32;50529.59;;;-144.14;100.00
7075;BME280;3578;51.568;6.932;2023-08-20T00:48:02;50513.59;;;-144.14;100.00
7075;BME280;3578;51.568;6.932;2023-08-20T00:50:30;50533.63;;;-144.14;100.00
7075;BME280;3578;51.568;6.932;2023-08-20T00:52:57;50499.56;;;-144.14;100.00
7075;BME280;3578;51.568;6.932;2023-08-20T00:55:24;50495.56;;;-144.14;100.00
7075;BME280;3578;51.568;6.932;2023-08-20T00:57:51;50519.59;;;-144.14;100.00
7075;BME280;3578;51.568;6.932;2023-08-20T01:00:18;50523.59;;;-144.14;100.00
7075;BME280;3578;51.568;6.932;2023-08-20T01:02:46;50519.59;;;-144.14;100.00
7075;BME280;3578;51.568;6.932;2023-08-20T01:05:15;50503.56;;;-144.14;100.00
7075;BME280;3578;51.568;6.932;2023-08-20T01:08:04;50541.63;;;-144.14;100.00
7075;BME280;3578;51.568;6.932;2023-08-20T01:10:42;50549.63;;;-144.14;100.00
7075;BME280;3578;51.568;6.932;2023-08-20T01:13:15;50515.59;;;-144.14;100.00
7075;BME280;3578;51.568;6.932;2023-08-20T01:15:42;50505.56;;;-144.14;100.00
7075;BME280;3578;51.568;6.932;2023-08-20T01:18:09;50521.59;;;-144.14;100.00
7075;BME280;3578;51.568;6.932;2023-08-20T01:20:41;50541.63;;;-144.14;100.00
7075;BME280;3578;51.568;6.932;2023-08-20T01:23:42;50527.59;;;-144.14;100.00
7075;BME280;3578;51.568;6.932;2023-08-20T01:26:31;50501.56;;;-144.14;100.00
7075;BME280;3578;51.568;6.932;2023-08-20T01:29:05;50481.53;;;-144.14;100.00
7075;BME280;3578;51.568;6.932;2023-08-20T01:31:33;50481.53;;;-144.14;100.00
7075;BME280;3578;51.568;6.932;2023-08-20T01:34:01;50529.59;;;-144.14;100.00
7075;BME280;3578;51.568;6.932;2023-08-20T01:36:29;50497.56;;;-144.14;100.00
7075;BME280;3578;51.568;6.932;2023-08-20T01:38:56;50497.56;;;-144.14;100.00
7075;BME280;3578;51.568;6.932;2023-08-20T01:41:23;50469.53;;;-144.14;100.00
7075;BME280;3578;51.568;6.932;2023-08-20T01:43:50;50495.56;;;-144.14;100.00
7075;BME280;3578;51.568;6.932;2023-08-20T01:46:18;50445.50;;;-144.14;100.00
7075;BME280;3578;51.568;6.932;2023-08-20T01:48:45;50471.53;;;-144.14;100.00
7075;BME280;3578;51.568;6.932;2023-08-20T01:51:12;50467.53;;;-144.14;100.00
7075;BME280;3578;51.568;6.932;2023-08-20T01:53:39;50475.53;;;-144.14;100.00
7075;BME280;3578;51.568;6.932;2023-08-20T01:56:11;50475.53;;;-144.14;100.00
7075;BME280;3578;51.568;6.932;2023-08-20T01:58:39;50463.53;;;-144.14;100.00
7075;BME280;3578;51.568;6.932;2023-08-20T02:01:06;50499.56;;;-144.14;100.00
7075;BME280;3578;51.568;6.932;2023-08-20T02:03:36;50477.53;;;-144.14;100.00
7075;BME280;3578;51.568;6.932;2023-08-20T02:06:03;50469.53;;;-144.14;100.00
7075;BME280;3578;51.568;6.932;2023-08-20T02:08:30;50461.53;;;-144.14;100.00
7075;BME280;3578;51.568;6.932;2023-08-20T02:11:01;50437.50;;;-144.14;100.00
7075;BME280;3578;51.568;6.932;2023-08-20T02:13:31;50465.53;;;-144.14;100.00
7075;BME280;3578;51.568;6.932;2023-08-20T02:16:00;50473.53;;;-144.14;100.00
7075;BME280;3578;51.568;6.932;2023-08-20T02:18:27;50471.53;;;-144.14;100.00
7075;BME280;3578;51.568;6.932;2023-08-20T02:20:55;50437.50;;;-144.14;100.00
7075;BME280;3578;51.568;6.932;2023-08-20T02:23:22;50461.53;;;-144.14;100.00
7075;BME280;3578;51.568;6.932;2023-08-20T02:25:49;50459.53;;;-144.14;100.00
7075;BME280;3578;51.568;6.932;2023-08-20T02:28:16;50461.53;;;-144.14;100.00
7075;BME280;3578;51.568;6.932;2023-08-20T02:30:46;50465.53;;;-144.14;100.00
7075;BME280;3578;51.568;6.932;2023-08-20T02:33:13;50489.56;;;-144.14;100.00
7075;BME280;3578;51.568;6.932;2023-08-20T02:35:40;50461.53;;;-144.14;100.00
7075;BME280;3578;51.568;6.932;2023-08-20T02:38:09;50465.53;;;-144.14;100.00
7075;BME280;3578;51.568;6.932;2023-08-20T02:40:40;50469.53;;;-144.14;100.00
7075;BME280;3578;51.568;6.932;2023-08-20T02:43:08;50411.47;;;-144.14;100.00
7075;BME280;3578;51.568;6.932;2023-08-20T02:45:40;50423.47;;;-144.14;100.00
7075;BME280;3578;51.568;6.932;2023-08-20T02:48:08;50425.47;;;-144.14;100.00
7075;BME280;3578;51.568;6.932;2023-08-20T02:50:35;50463.53;;;-144.14;100.00
7075;BME280;3578;51.568;6.932;2023-08-20T02:53:03;50417.47;;;-144.14;100.00
7075;BME280;3578;51.568;6.932;2023-08-20T02:55:32;50423.47;;;-144.14;100.00
7075;BME280;3578;51.568;6.932;2023-08-20T02:57:59;50429.47;;;-144.14;100.00
7075;BME280;3578;51.568;6.932;2023-08-20T03:00:26;50461.53;;;-144.14;100.00
7075;BME280;3578;51.568;6.932;2023-08-20T03:02:55;50445.50;;;-144.14;100.00
7075;BME280;3578;51.568;6.932;2023-08-20T03:05:22;50421.47;;;-144.14;100.00
7075;BME280;3578;51.568;6.932;2023-08-20T03:07:49;50433.50;;;-144.14;100.00
7075;BME280;3578;51.568;6.932;2023-08-20T03:10:17;50457.53;;;-144.14;100.00
7075;BME280;3578;51.568;6.932;2023-08-20T03:12:45;50467.53;;;-144.14;100.00
7075;BME280;3578;51.568;6.932;2023-08-20T03:15:12;50441.50;;;-144.14;100.00
7075;BME280;3578;51.568;6.932;2023-08-20T03:17:39;50423.47;;;-144.14;100.00
7075;BME280;3578;51.568;6.932;2023-08-20T03:20:08;50471.53;;;-144.14;100.00
7075;BME280;3578;51.568;6.932;2023-08-20T03:22:37;50441.50;;;-144.14;100.00
7075;BME280;3578;51.568;6.932;2023-08-20T03:25:05;50439.50;;;-144.14;100.00
7075;BME280;3578;51.568;6.932;2023-08-20T03:27:32;50433.50;;;-144.14;100.00
7075;BME280;3578;51.568;6.932;2023-08-20T03:30:01;50441.50;;;-144.14;100.00
7075;BME280;3578;51.568;6.932;2023-08-20T03:32:28;50431.50;;;-144.14;100.00
7075;BME280;3578;51.568;6.932;2023-08-20T03:34:55;50421.47;;;-144.14;100.00
7075;BME280;3578;51.568;6.932;2023-08-20T03:37:24;50425.47;;;-144.14;100.00
7075;BME280;3578;51.568;6.932;2023-08-20T03:39:51;50421.47;;;-144.14;100.00
7075;BME280;3578;51.568;6.932;2023-08-20T03:42:18;50419.47;;;-144.14;100.00
7075;BME280;3578;51.568;6.932;2023-08-20T03:44:45;50423.47;;;-144.14;100.00
7075;BME280;3578;51.568;6.932;2023-08-20T03:47:14;50417.47;;;-144.14;100.00
7075;BME280;3578;51.568;6.932;2023-08-20T03:49:41;50427.47;;;-144.14;100.00
7075;BME280;3578;51.568;6.932;2023-08-20T03:52:08;50429.47;;;-144.14;100.00
7075;BME280;3578;51.568;6.932;2023-08-20T03:54:35;50443.50;;;-144.14;100.00
7075;BME280;3578;51.568;6.932;2023-08-20T03:57:02;50411.47;;;-144.14;100.00
7075;BME280;3578;51.568;6.932;2023-08-20T03:59:29;50411.47;;;-144.14;100.00
7075;BME280;3578;51.568;6.932;2023-08-20T04:01:56;50425.47;;;-144.14;100.00
7075;BME280;3578;51.568;6.932;2023-08-20T04:04:25;50389.44;;;-144.14;100.00
7075;BME280;3578;51.568;6.932;2023-08-20T04:06:52;50419.47;;;-144.14;100.00
7075;BME280;3578;51.568;6.932;2023-08-20T04:09:19;50377.41;;;-144.14;100.00
7075;BME280;3578;51.568;6.932;2023-08-20T04:11:47;50395.44;;;-144.14;100.00
7075;BME280;3578;51.568;6.932;2023-08-20T04:14:14;50405.47;;;-144.14;100.00
7075;BME280;3578;51.568;6.932;2023-08-20T04:16:41;50393.44;;;-144.14;100.00
7075;BME280;3578;51.568;6.932;2023-08-20T04:19:08;50393.44;;;-144.14;100.00
7075;BME280;3578;51.568;6.932;2023-08-20T04:21:37;50393.44;;;-144.14;100.00
7075;BME280;3578;51.568;6.932;2023-08-20T04:24:04;50393.44;;;-144.14;100.00
7075;BME280;3578;51.568;6.932;2023-08-20T04:26:31;50369.41;;;-144.14;100.00
7075;BME280;3578;51.568;6.932;2023-08-20T04:28:59;50391.44;;;-144.14;100.00
7075;BME280;3578;51.568;6.932;2023-08-20T04:31:26;50359.41;;;-144.14;100.00
7075;BME280;3578;51.568;6.932;2023-08-20T04:33:53;50365.41;;;-144.14;100.00
7075;BME280;3578;51.568;6.932;2023-08-20T04:36:20;50357.41;;;-144.14;100.00
7075;BME280;3578;51.568;6.932;2023-08-20T04:38:48;50375.41;;;-144.14;100.00
7075;BME280;3578;51.568;6.932;2023-08-20T04:41:15;50357.41;;;-144.14;100.00
7075;BME280;3578;51.568;6.932;2023-08-20T04:43:42;50387.44;;;-144.14;100.00
7075;BME280;3578;51.568;6.932;2023-08-20T04:46:09;50373.41;;;-144.14;100.00
7075;BME280;3578;51.568;6.932;2023-08-20T04:48:36;50365.41;;;-144.14;100.00
7075;BME280;3578;51.568;6.932;2023-08-20T04:51:04;50367.41;;;-144.14;100.00
7075;BME280;3578;51.568;6.932;2023-08-20T04:53:32;50337.38;;;-144.14;100.00
7075;BME280;3578;51.568;6.932;2023-08-20T04:56:00;50365.41;;;-144.14;100.00
7075;BME280;3578;51.568;6.932;2023-08-20T04:58:28;50365.41;;;-144.14;100.00
7075;BME280;3578;51.568;6.932;2023-08-20T05:00:55;50339.38;;;-144.14;100.00
7075;BME280;3578;51.568;6.932;2023-08-20T05:03:22;50371.41;;;-144.14;100.00
7075;BME280;3578;51.568;6.932;2023-08-20T05:05:49;50345.38;;;-144.14;100.00
7075;BME280;3578;51.568;6.932;2023-08-20T05:08:16;50353.41;;;-144.14;100.00
7075;BME280;3578;51.568;6.932;2023-08-20T05:10:43;50333.38;;;-144.14;100.00
7075;BME280;3578;51.568;6.932;2023-08-20T05:13:12;50359.41;;;-144.14;100.00
7075;BME280;3578;51.568;6.932;2023-08-20T05:15:39;50343.38;;;-144.14;100.00
7075;BME280;3578;51.568;6.932;2023-08-20T05:18:06;50343.38;;;-144.14;100.00
7075;BME280;3578;51.568;6.932;2023-08-20T05:20:33;50361.41;;;-144.14;100.00
7075;BME280;3578;51.568;6.932;2023-08-20T05:23:00;50341.38;;;-144.14;100.00
7075;BME280;3578;51.568;6.932;2023-08-20T05:25:27;50379.44;;;-144.14;100.00
7075;BME280;3578;51.568;6.932;2023-08-20T05:27:54;50337.38;;;-144.14;100.00
7075;BME280;3578;51.568;6.932;2023-08-20T05:30:22;50347.38;;;-144.14;100.00
7075;BME280;3578;51.568;6.932;2023-08-20T05:32:49;50361.41;;;-144.14;100.00
7075;BME280;3578;51.568;6.932;2023-08-20T05:35:16;50333.38;;;-144.14;100.00
7075;BME280;3578;51.568;6.932;2023-08-20T05:37:43;50339.38;;;-144.14;100.00
7075;BME280;3578;51.568;6.932;2023-08-20T05:40:10;50349.38;;;-144.14;100.00
7075;BME280;3578;51.568;6.932;2023-08-20T05:42:37;50339.38;;;-144.14;100.00
7075;BME280;3578;51.568;6.932;2023-08-20T05:45:05;50357.41;;;-144.14;100.00
7075;BME280;3578;51.568;6.932;2023-08-20T05:47:33;50377.41;;;-144.14;100.00
7075;BME280;3578;51.568;6.932;2023-08-20T05:50:00;50389.44;;;-144.14;100.00
7075;BME280;3578;51.568;6.932;2023-08-20T05:52:27;50425.47;;;-144.14;100.00
7075;BME280;3578;51.568;6.932;2023-08-20T05:54:54;50387.44;;;-144.14;100.00
7075;BME280;3578;51.568;6.932;2023-08-20T05:57:22;50385.44;;;-144.14;100.00
7075;BME280;3578;51.568;6.932;2023-08-20T05:59:49;50399.44;;;-144.14;100.00
7075;BME280;3578;51.568;6.932;2023-08-20T06:02:16;50369.41;;;-144.14;100.00
7075;BME280;3578;51.568;6.932;2023-08-20T06:04:45;50401.44;;;-144.14;100.00
7075;BME280;3578;51.568;6.932;2023-08-20T06:07:12;50391.44;;;-144.14;100.00
7075;BME280;3578;51.568;6.932;2023-08-20T06:09:39;50399.44;;;-144.14;100.00
7075;BME280;3578;51.568;6.932;2023-08-20T06:12:07;50395.44;;;-144.14;100.00
7075;BME280;3578;51.568;6.932;2023-08-20T06:14:34;50405.47;;;-144.14;100.00
7075;BME280;3578;51.568;6.932;2023-08-20T06:17:01;50407.47;;;-144.14;100.00
7075;BME280;3578;51.568;6.932;2023-08-20T06:19:28;50401.44;;;-144.14;100.00
7075;BME280;3578;51.568;6.932;2023-08-20T06:21:56;50417.47;;;-144.14;100.00
7075;BME280;3578;51.568;6.932;2023-08-20T06:24:24;50413.47;;;-144.14;100.00
7075;BME280;3578;51.568;6.932;2023-08-20T06:26:51;50437.50;;;-144.14;100.00
7075;BME280;3578;51.568;6.932;2023-08-20T06:29:18;50433.50;;;-144.14;100.00
7075;BME280;3578;51.568;6.932;2023-08-20T06:31:47;50431.50;;;-144.14;100.00
7075;BME280;3578;51.568;6.932;2023-08-20T06:34:14;50449.50;;;-144.14;100.00
7075;BME280;3578;51.568;6.932;2023-08-20T06:36:41;50425.47;;;-144.14;100.00
7075;BME280;3578;51.568;6.932;2023-08-20T06:39:10;50435.50;;;-144.14;100.00
7075;BME280;3578;51.568;6.932;2023-08-20T06:41:37;50421.47;;;-144.14;100.00
7075;BME280;3578;51.568;6.932;2023-08-20T06:44:05;50435.50;;;-144.14;100.00
7075;BME280;3578;51.568;6.932;2023-08-20T06:46:32;50453.50;;;-144.14;100.00
7075;BME280;3578;51.568;6.932;2023-08-20T06:48:59;50459.53;;;-144.14;100.00
7075;BME280;3578;51.568;6.932;2023-08-20T06:51:26;50483.56;;;-144.14;100.00
7075;BME280;3578;51.568;6.932;2023-08-20T06:53:54;50461.53;;;-144.14;100.00
7075;BME280;3578;51.568;6.932;2023-08-20T06:56:23;50477.53;;;-144.14;100.00
7075;BME280;3578;51.568;6.932;2023-08-20T06:58:51;50467.53;;;-144.14;100.00
7075;BME280;3578;51.568;6.932;2023-08-20T07:01:19;50469.53;;;-144.14;100.00
7075;BME280;3578;51.568;6.932;2023-08-20T07:03:46;50501.56;;;-144.14;100.00
7075;BME280;3578;51.568;6.932;2023-08-20T07:06:14;50493.56;;;-144.14;100.00
7075;BME280;3578;51.568;6.932;2023-08-20T07:08:42;50493.56;;;-144.14;100.00
7075;BME280;3578;51.568;6.932;2023-08-20T07:11:09;50513.59;;;-144.14;100.00
7075;BME280;3578;51.568;6.932;2023-08-20T07:13:37;50483.56;;;-144.14;100.00
7075;BME280;3578;51.568;6.932;2023-08-20T07:16:04;50469.53;;;-144.14;100.00
7075;BME280;3578;51.568;6.932;2023-08-20T07:18:31;50549.63;;;-144.14;100.00
7075;BME280;3578;51.568;6.932;2023-08-20T07:20:58;50565.66;;;-144.14;100.00
7075;BME280;3578;51.568;6.932;2023-08-20T07:23:25;50549.63;;;-144.14;100.00
7075;BME280;3578;51.568;6.932;2023-08-20T07:26:04;50573.66;;;-144.14;100.00
7075;BME280;3578;51.568;6.932;2023-08-20T07:28:32;50639.75;;;-144.14;100.00
7075;BME280;3578;51.568;6.932;2023-08-20T07:31:14;50651.75;;;-144.14;100.00
7075;BME280;3578;51.568;6.932;2023-08-20T07:33:41;50697.81;;;-144.14;100.00
7075;BME280;3578;51.568;6.932;2023-08-20T07:36:12;50705.84;;;-144.14;100.00
7075;BME280;3578;51.568;6.932;2023-08-20T07:38:39;50659.78;;;-144.14;100.00
7075;BME280;3578;51.568;6.932;2023-08-20T07:41:06;50703.81;;;-144.14;100.00
7075;BME280;3578;51.568;6.932;2023-08-20T07:43:33;50755.91;;;-144.14;100.00
7075;BME280;3578;51.568;6.932;2023-08-20T07:46:00;50727.84;;;-144.14;100.00
7075;BME280;3578;51.568;6.932;2023-08-20T07:48:29;50832.00;;;-144.14;100.00
7075;BME280;3578;51.568;6.932;2023-08-20T07:50:56;51094.34;;;-144.14;100.00
7075;BME280;3578;51.568;6.932;2023-08-20T07:53:23;51330.69;;;-144.14;100.00
7075;BME280;3578;51.568;6.932;2023-08-20T07:55:51;51643.16;;;-144.14;96.85
7075;BME280;3578;51.568;6.932;2023-08-20T07:58:18;51797.41;;;-144.14;93.99
7075;BME280;3578;51.568;6.932;2023-08-20T08:00:45;51673.22;;;-144.14;96.60
7075;BME280;3578;51.568;6.932;2023-08-20T08:03:12;51625.16;;;-144.14;98.45
7075;BME280;3578;51.568;6.932;2023-08-20T08:05:41;51464.91;;;-144.14;100.00
7075;BME280;3578;51.568;6.932;2023-08-20T08:08:08;51412.81;;;-144.14;100.00
7075;BME280;3578;51.568;6.932;2023-08-20T08:10:35;51338.72;;;-144.14;100.00
7075;BME280;3578;51.568;6.932;2023-08-20T08:13:02;51330.69;;;-144.14;100.00
7075;BME280;3578;51.568;6.932;2023-08-20T08:15:29;51322.69;;;-144.14;100.00
7075;BME280;3578;51.568;6.932;2023-08-20T08:17:56;51322.69;;;-144.14;100.00
7075;BME280;3578;51.568;6.932;2023-08-20T08:20:23;51300.66;;;-144.14;100.00
7075;BME280;3578;51.568;6.932;2023-08-20T08:22:52;51320.69;;;-144.14;100.00
7075;BME280;3578;51.568;6.932;2023-08-20T08:25:19;51282.63;;;-144.14;100.00
7075;BME280;3578;51.568;6.932;2023-08-20T08:27:46;51298.66;;;-144.14;100.00
7075;BME280;3578;51.568;6.932;2023-08-20T08:30:14;51316.69;;;-144.14;100.00
7075;BME280;3578;51.568;6.932;2023-08-20T08:32:41;51306.66;;;-144.14;100.00
7075;BME280;3578;51.568;6.932;2023-08-20T08:35:08;51334.69;;;-144.14;100.00
7075;BME280;3578;51.568;6.932;2023-08-20T08:37:35;51320.69;;;-144.14;100.00
7075;BME280;3578;51.568;6.932;2023-08-20T08:40:05;51310.66;;;-144.14;100.00
7075;BME280;3578;51.568;6.932;2023-08-20T08:42:33;51334.69;;;-144.14;100.00
7075;BME280;3578;51.568;6.932;2023-08-20T08:45:00;51334.69;;;-144.14;100.00
7075;BME280;3578;51.568;6.932;2023-08-20T08:47:28;51428.84;;;-144.14;100.00
7075;BME280;3578;51.568;6.932;2023-08-20T08:49:56;51442.88;;;-144.14;100.00
7075;BME280;3578;51.568;6.932;2023-08-20T08:52:24;51482.91;;;-144.14;100.00
7075;BME280;3578;51.568;6.932;2023-08-20T08:54:52;51456.88;;;-144.14;100.00
7075;BME280;3578;51.568;6.932;2023-08-20T08:57:20;51370.75;;;-144.14;100.00
7075;BME280;3578;51.568;6.932;2023-08-20T08:59:47;51378.75;;;-144.14;100.00
7075;BME280;3578;51.568;6.932;2023-08-20T09:02:17;51340.72;;;-144.14;100.00
7075;BME280;3578;51.568;6.932;2023-08-20T09:04:44;51344.72;;;-144.14;100.00
7075;BME280;3578;51.568;6.932;2023-08-20T09:07:13;51312.66;;;-144.14;100.00
7075;BME280;3578;51.568;6.932;2023-08-20T09:09:42;51312.66;;;-144.14;100.00
7075;BME280;3578;51.568;6.932;2023-08-20T09:12:13;51290.63;;;-144.14;100.00
7075;BME280;3578;51.568;6.932;2023-08-20T09:14:45;51284.63;;;-144.14;100.00
7075;BME280;3578;51.568;6.932;2023-08-20T09:17:14;51300.66;;;-144.14;100.00
7075;BME280;3578;51.568;6.932;2023-08-20T09:19:43;51292.63;;;-144.14;100.00
7075;BME280;3578;51.568;6.932;2023-08-20T09:22:11;51302.66;;;-144.14;100.00
7075;BME280;3578;51.568;6.932;2023-08-20T09:24:41;51342.72;;;-144.14;100.00
7075;BME280;3578;51.568;6.932;2023-08-20T09:27:09;51344.72;;;-144.14;100.00
7075;BME280;3578;51.568;6.932;2023-08-20T09:29:45;51432.84;;;-144.14;100.00
7075;BME280;3578;51.568;6.932;2023-08-20T09:32:17;51561.03;;;-144.14;100.00
7075;BME280;3578;51.568;6.932;2023-08-20T09:34:44;51765.38;;;-144.14;96.60
7075;BME280;3578;51.568;6.932;2023-08-20T09:37:13;51803.44;;;-144.14;97.37
7075;BME280;3578;51.568;6.932;2023-08-20T09:39:41;51839.47;;;-144.14;96.13
7075;BME280;3578;51.568;6.932;2023-08-20T09:42:09;51867.53;;;-144.14;94.96
7075;BME280;3578;51.568;6.932;2023-08-20T09:44:39;51871.53;;;-144.14;95.26
7075;BME280;3578;51.568;6.932;2023-08-20T09:47:09;51887.56;;;-144.14;94.26
7075;BME280;3578;51.568;6.932;2023-08-20T09:49:38;51915.59;;;-144.14;94.65
7075;BME280;3578;51.568;6.932;2023-08-20T09:52:07;52015.78;;;-144.14;93.18
7075;BME280;3578;51.568;6.932;2023-08-20T09:54:45;52027.78;;;-144.14;92.54
7075;BME280;3578;51.568;6.932;2023-08-20T09:57:26;52123.97;;;-144.14;90.84
7075;BME280;3578;51.568;6.932;2023-08-20T09:59:54;52103.94;;;-144.14;91.20
7075;BME280;3578;51.568;6.932;2023-08-20T10:02:23;52089.91;;;-144.14;92.65
7075;BME280;3578;51.568;6.932;2023-08-20T10:04:50;52067.88;;;-144.14;95.84
7075;BME280;3578;51.568;6.932;2023-08-20T10:07:18;52079.88;;;-144.14;94.22
7075;BME280;3578;51.568;6.932;2023-08-20T10:09:46;52083.88;;;-144.14;92.04
7075;BME280;3578;51.568;6.932;2023-08-20T10:12:16;52029.78;;;-144.14;89.70
7075;BME280;3578;51.568;6.932;2023-08-20T10:14:43;52212.09;;;-144.14;90.14
7075;BME280;3578;51.568;6.932;2023-08-20T10:17:11;52252.19;;;-144.14;90.52
7075;BME280;3578;51.568;6.932;2023-08-20T10:19:42;52268.22;;;-144.14;91.31
7075;BME280;3578;51.568;6.932;2023-08-20T10:22:09;52302.28;;;-144.14;90.62
7075;BME280;3578;51.568;6.932;2023-08-20T10:24:48;52296.25;;;-144.14;90.17
7075;BME280;3578;51.568;6.932;2023-08-20T10:27:25;52296.25;;;-144.14;90.92
7075;BME280;3578;51.568;6.932;2023-08-20T10:29:53;52312.28;;;-144.14;90.15
7075;BME280;3578;51.568;6.932;2023-08-20T10:35:07;52274.22;;;-144.14;91.49
7075;BME280;3578;51.568;6.932;2023-08-20T10:37:34;52224.13;;;-144.14;91.98
7075;BME280;3578;51.568;6.932;2023-08-20T10:40:02;52200.09;;;-144.14;92.88
7075;BME280;3578;51.568;6.932;2023-08-20T10:42:30;52244.16;;;-144.14;90.49
7075;BME280;3578;51.568;6.932;2023-08-20T10:44:59;52270.22;;;-144.14;91.17
7075;BME280;3578;51.568;6.932;2023-08-20T10:47:29;52264.19;;;-144.14;90.09
7075;BME280;3578;51.568;6.932;2023-08-20T10:50:02;52338.34;;;-144.14;89.52
7075;BME280;3578;51.568;6.932;2023-08-20T10:52:30;52444.53;;;-144.14;87.78
7075;BME280;3578;51.568;6.932;2023-08-20T10:54:57;52452.53;;;-144.14;85.76
7075;BME280;3578;51.568;6.932;2023-08-20T10:57:34;52544.69;;;-144.14;86.46
7075;BME280;3578;51.568;6.932;2023-08-20T11:00:03;52584.78;;;-144.14;86.89
7075;BME280;3578;51.568;6.932;2023-08-20T11:02:37;52638.88;;;-144.14;86.36
7075;BME280;3578;51.568;6.932;2023-08-20T11:05:16;52668.94;;;-144.14;85.80
7075;BME280;3578;51.568;6.932;2023-08-20T11:07:47;52680.97;;;-144.14;84.31
7075;BME280;3578;51.568;6.932;2023-08-20T11:10:15;52723.03;;;-144.14;84.73
7075;BME280;3578;51.568;6.932;2023-08-20T11:12:43;52701.00;;;-144.14;84.51
7075;BME280;3578;51.568;6.932;2023-08-20T11:15:10;52701.00;;;-144.14;82.68
7075;BME280;3578;51.568;6.932;2023-08-20T11:17:42;52733.06;;;-144.14;82.72
7075;BME280;3578;51.568;6.932;2023-08-20T11:20:09;52676.94;;;-144.14;84.43
7075;BME280;3578;51.568;6.932;2023-08-20T11:22:39;52721.03;;;-144.14;83.46
7075;BME280;3578;51.568;6.932;2023-08-20T11:25:10;52793.16;;;-144.14;83.14
7075;BME280;3578;51.568;6.932;2023-08-20T11:27:41;52807.19;;;-144.14;84.20
7075;BME280;3578;51.568;6.932;2023-08-20T11:30:09;52893.38;;;-144.14;82.88
7075;BME280;3578;51.568;6.932;2023-08-20T11:32:38;52899.38;;;-144.14;82.66
7075;BME280;3578;51.568;6.932;2023-08-20T11:35:06;52873.31;;;-144.14;83.81
7075;BME280;3578;51.568;6.932;2023-08-20T11:37:34;52893.38;;;-144.14;83.20
7075;BME280;3578;51.568;6.932;2023-08-20T11:40:02;52871.31;;;-144.14;84.99
7075;BME280;3578;51.568;6.932;2023-08-20T11:42:30;52901.38;;;-144.14;83.45
7075;BME280;3578;51.568;6.932;2023-08-20T11:44:57;52973.53;;;-144.14;82.87
7075;BME280;3578;51.568;6.932;2023-08-20T11:47:24;53097.75;;;-144.14;77.24
7075;BME280;3578;51.568;6.932;2023-08-20T11:50:03;53147.88;;;-144.14;76.49
7075;BME280;3578;51.568;6.932;2023-08-20T11:52:32;53177.94;;;-144.14;75.25
7075;BME280;3578;51.568;6.932;2023-08-20T11:54:59;53218.00;;;-144.14;73.91
7075;BME280;3578;51.568;6.932;2023-08-20T11:57:30;53216.00;;;-144.14;76.69
7075;BME280;3578;51.568;6.932;2023-08-20T12:00:01;53260.09;;;-144.14;76.64
7075;BME280;3578;51.568;6.932;2023-08-20T12:02:31;53262.09;;;-144.14;76.30
7075;BME280;3578;51.568;6.932;2023-08-20T12:04:58;53280.13;;;-144.14;75.60
7075;BME280;3578;51.568;6.932;2023-08-20T12:07:26;53316.22;;;-144.14;74.84
7075;BME280;3578;51.568;6.932;2023-08-20T12:09:54;53334.25;;;-144.14;78.04
7075;BME280;3578;51.568;6.932;2023-08-20T12:12:22;53386.34;;;-144.14;74.63
7075;BME280;3578;51.568;6.932;2023-08-20T12:14:50;53420.44;;;-144.14;75.10
7075;BME280;3578;51.568;6.932;2023-08-20T12:17:18;53442.47;;;-144.14;76.88
7075;BME280;3578;51.568;6.932;2023-08-20T12:19:45;53470.53;;;-144.14;75.15
7075;BME280;3578;51.568;6.932;2023-08-20T12:22:12;53494.56;;;-144.14;75.93
7075;BME280;3578;51.568;6.932;2023-08-20T12:24:39;53456.50;;;-144.14;78.98
7075;BME280;3578;51.568;6.932;2023-08-20T12:27:06;53364.31;;;-144.14;81.35
7075;BME280;3578;51.568;6.932;2023-08-20T12:29:33;53442.47;;;-144.14;80.17
7075;BME280;3578;51.568;6.932;2023-08-20T12:32:02;53456.50;;;-144.14;78.66
7075;BME280;3578;51.568;6.932;2023-08-20T12:34:32;53536.66;;;-144.14;76.04
7075;BME280;3578;51.568;6.932;2023-08-20T12:37:00;53474.53;;;-144.14;77.28
7075;BME280;3578;51.568;6.932;2023-08-20T12:39:27;53474.53;;;-144.14;77.65
7075;BME280;3578;51.568;6.932;2023-08-20T12:41:54;53510.63;;;-144.14;77.29
7075;BME280;3578;51.568;6.932;2023-08-20T12:44:21;53602.81;;;-144.14;74.14
7075;BME280;3578;51.568;6.932;2023-08-20T12:46:48;53584.78;;;-144.14;78.18
7075;BME280;3578;51.568;6.932;2023-08-20T12:49:17;53715.06;;;-144.14;69.48
7075;BME280;3578;51.568;6.932;2023-08-20T12:51:43;53719.06;;;-144.14;72.45
7075;BME280;3578;51.568;6.932;2023-08-20T12:54:10;53761.16;;;-144.14;70.08
7075;BME280;3578;51.568;6.932;2023-08-20T12:56:38;53763.16;;;-144.14;73.36
7075;BME280;3578;51.568;6.932;2023-08-20T12:59:05;53741.09;;;-144.14;70.87
7075;BME280;3578;51.568;6.932;2023-08-20T13:01:32;53767.16;;;-144.14;70.09